Time;durP1;ratioP1;P1;durP2;ratioP2;P2;SDS_P1;SDS_P2;PMS_P1;PMS_P2;Temp;Humidity;BMP_temperature;BMP_pressure;BME280_temperature;BME280_humidity;BME280_pressure;Samples;Min_cycle;Max_cycle;Signal;HPM_P1;HPM_P2
2022/07/20 00:00:41;;;;;;;7.20;3.03;;;21.80;99.00;;;;;;5125315;27;20059;-80
2022/07/20 00:03:09;;;;;;;7.07;2.33;;;21.80;98.30;;;;;;5137782;27;20153;-80
2022/07/20 00:05:36;;;;;;;4.72;2.10;;;21.70;98.30;;;;;;5149864;27;20125;-80
2022/07/20 00:08:02;;;;;;;6.63;1.85;;;21.70;98.20;;;;;;5157583;27;20374;-80
2022/07/20 00:13:13;;;;;;;6.03;2.55;;;21.60;98.00;;;;;;5158280;27;20398;-80
2022/07/20 00:15:40;;;;;;;3.67;2.15;;;21.60;98.40;;;;;;5134169;27;20062;-80
2022/07/20 00:18:06;;;;;;;5.95;2.35;;;21.50;98.60;;;;;;5137390;27;20088;-80
2022/07/20 00:20:33;;;;;;;7.80;2.20;;;21.50;98.60;;;;;;5136469;27;20496;-80
2022/07/20 00:22:59;;;;;;;4.15;2.70;;;21.40;98.50;;;;;;5136449;27;20475;-80
2022/07/20 00:25:25;;;;;;;7.47;2.50;;;21.40;98.50;;;;;;5136491;27;20042;-80
2022/07/20 00:27:51;;;;;;;5.50;2.28;;;21.30;98.80;;;;;;5134893;27;20096;-80
2022/07/20 00:30:17;;;;;;;4.07;2.63;;;21.30;99.10;;;;;;5119809;27;20402;-80
2022/07/20 00:32:43;;;;;;;12.75;2.95;;;21.20;99.30;;;;;;5119081;27;20039;-80
2022/07/20 00:35:11;;;;;;;5.88;2.05;;;21.20;99.20;;;;;;5137053;27;20497;-80
2022/07/20 00:37:38;;;;;;;13.73;2.55;;;21.20;99.00;;;;;;5132578;27;20079;-80
2022/07/20 00:40:06;;;;;;;8.77;2.30;;;21.10;99.00;;;;;;5115254;28;20054;-80
2022/07/20 00:42:33;;;;;;;9.10;2.35;;;21.10;98.90;;;;;;5115682;27;20134;-80
2022/07/20 00:44:59;;;;;;;5.78;2.42;;;21.00;98.90;;;;;;5114470;28;20048;-80
2022/07/20 00:47:25;;;;;;;4.95;2.58;;;21.00;98.90;;;;;;5116675;27;20126;-80
2022/07/20 00:49:51;;;;;;;7.22;2.40;;;21.00;99.00;;;;;;5114308;28;20040;-80
2022/07/20 00:52:17;;;;;;;4.07;2.30;;;20.90;99.00;;;;;;5116011;28;20059;-80
2022/07/20 00:54:45;;;;;;;4.25;2.63;;;20.90;99.00;;;;;;5134189;27;20072;-80
2022/07/20 00:57:12;;;;;;;4.95;2.35;;;20.80;98.90;;;;;;5133675;27;20398;-81
2022/07/20 00:59:38;;;;;;;3.80;1.95;;;20.80;99.20;;;;;;5135353;27;20113;-80
2022/07/20 01:02:03;;;;;;;6.07;2.20;;;20.80;98.70;;;;;;5118049;28;20043;-80
2022/07/20 01:04:29;;;;;;;3.33;2.30;;;20.70;98.70;;;;;;5122354;27;20074;-81
2022/07/20 01:06:55;;;;;;;10.00;2.17;;;20.70;98.80;;;;;;5135263;27;20390;-80
2022/07/20 01:09:22;;;;;;;4.95;2.80;;;20.60;98.80;;;;;;5135109;27;20043;-80
2022/07/20 01:11:48;;;;;;;3.95;2.28;;;20.60;98.80;;;;;;5135543;27;20043;-80
2022/07/20 01:14:14;;;;;;;7.57;2.20;;;20.60;98.80;;;;;;5135592;27;20039;-80
2022/07/20 01:16:40;;;;;;;5.22;2.35;;;20.60;98.80;;;;;;5149050;27;20061;-80
2022/07/20 01:19:06;;;;;;;4.75;2.30;;;20.50;99.20;;;;;;5154866;27;20031;-80
2022/07/20 01:21:39;;;;;;;3.45;2.28;;;20.50;99.30;;;;;;5157226;27;20039;-80
2022/07/20 01:24:05;;;;;;;6.28;2.75;;;20.50;99.30;;;;;;5155303;27;20443;-80
2022/07/20 01:26:31;;;;;;;4.43;2.35;;;20.40;99.30;;;;;;5137294;27;20046;-80
2022/07/20 01:28:59;;;;;;;6.60;2.78;;;20.40;99.20;;;;;;5155512;27;20046;-80
2022/07/20 01:31:25;;;;;;;5.35;2.83;;;20.40;98.80;;;;;;5156463;27;20043;-80
2022/07/20 01:33:51;;;;;;;5.68;2.45;;;20.30;98.90;;;;;;5154867;27;20053;-80
2022/07/20 01:36:16;;;;;;;7.82;2.80;;;20.30;99.30;;;;;;5156595;27;20074;-80
2022/07/20 01:38:42;;;;;;;4.95;2.28;;;20.20;99.20;;;;;;5155806;27;20035;-80
2022/07/20 01:41:08;;;;;;;7.63;2.20;;;20.20;99.10;;;;;;5136914;27;20528;-80
2022/07/20 01:43:34;;;;;;;7.55;2.45;;;20.20;99.00;;;;;;5155620;27;20078;-80
2022/07/20 01:45:59;;;;;;;5.15;2.78;;;20.10;98.90;;;;;;5155313;27;20111;-81
2022/07/20 01:48:25;;;;;;;4.47;2.50;;;20.10;99.00;;;;;;5136815;27;20118;-80
2022/07/20 01:50:51;;;;;;;4.03;2.55;;;20.10;99.20;;;;;;5156249;27;20060;-80
2022/07/20 01:53:16;;;;;;;5.32;3.15;;;20.00;99.20;;;;;;5136258;27;20096;-80
2022/07/20 01:55:42;;;;;;;5.82;2.33;;;20.00;99.10;;;;;;5156313;27;20473;-80
2022/07/20 01:58:08;;;;;;;6.20;2.38;;;20.00;98.90;;;;;;5155135;27;20439;-80
2022/07/20 02:00:34;;;;;;;5.25;2.42;;;19.90;99.20;;;;;;5136738;27;20405;-80
2022/07/20 02:02:59;;;;;;;4.75;2.60;;;19.90;99.10;;;;;;5136580;27;20042;-80
2022/07/20 02:05:25;;;;;;;7.82;3.03;;;19.90;98.70;;;;;;5137440;27;20047;-80
2022/07/20 02:07:51;;;;;;;9.52;2.55;;;19.90;98.80;;;;;;5135762;27;20042;-80
2022/07/20 02:10:17;;;;;;;5.20;2.30;;;19.90;98.90;;;;;;5155986;27;20045;-80
2022/07/20 02:12:42;;;;;;;12.35;2.80;;;19.80;98.90;;;;;;5154781;27;20043;-80
2022/07/20 02:15:10;;;;;;;6.30;2.30;;;19.80;98.80;;;;;;5155213;27;20046;-80
2022/07/20 02:17:36;;;;;;;9.23;2.67;;;19.80;98.70;;;;;;5136320;27;20434;-80
2022/07/20 02:20:04;;;;;;;5.82;2.58;;;19.70;98.90;;;;;;5154966;27;20103;-80
2022/07/20 02:22:29;;;;;;;7.78;2.90;;;19.70;99.00;;;;;;5136578;27;20061;-80
2022/07/20 02:24:55;;;;;;;4.45;2.17;;;19.60;99.20;;;;;;5154765;27;20117;-80
2022/07/20 02:27:21;;;;;;;4.30;2.20;;;19.60;99.30;;;;;;5137107;27;20060;-80
2022/07/20 02:29:47;;;;;;;6.80;2.47;;;19.60;98.80;;;;;;5154042;27;20043;-80
2022/07/20 02:32:12;;;;;;;5.63;2.42;;;19.60;98.90;;;;;;5136960;27;20042;-80
2022/07/20 02:34:38;;;;;;;4.70;2.72;;;19.60;98.70;;;;;;5136196;27;20039;-80
2022/07/20 02:37:04;;;;;;;6.30;3.00;;;19.60;98.70;;;;;;5136033;27;20046;-79
2022/07/20 02:39:30;;;;;;;4.22;2.95;;;19.60;98.70;;;;;;5154975;27;20117;-81
2022/07/20 02:41:55;;;;;;;10.23;3.08;;;19.60;98.20;;;;;;5116525;27;20486;-79
2022/07/20 02:44:21;;;;;;;7.53;4.05;;;19.60;98.10;;;;;;5098526;28;20548;-80
2022/07/20 02:46:47;;;;;;;4.05;2.72;;;19.60;98.20;;;;;;5134807;27;20107;-79
2022/07/20 02:49:13;;;;;;;5.60;2.50;;;19.60;98.30;;;;;;5154250;27;20035;-80
2022/07/20 02:51:38;;;;;;;6.93;2.60;;;19.60;98.10;;;;;;5124751;27;20047;-80
2022/07/20 02:54:04;;;;;;;6.15;2.60;;;19.60;97.70;;;;;;5134792;27;20094;-80
2022/07/20 02:56:30;;;;;;;8.40;2.88;;;19.60;97.80;;;;;;5142330;27;20070;-80
2022/07/20 02:58:56;;;;;;;3.67;2.90;;;19.60;97.50;;;;;;5136029;27;20051;-80
2022/07/20 03:01:22;;;;;;;8.18;2.80;;;19.70;97.20;;;;;;5154522;27;20054;-80
2022/07/20 03:03:48;;;;;;;9.77;3.13;;;19.70;97.70;;;;;;5154334;27;20089;-79
2022/07/20 03:06:15;;;;;;;4.32;2.70;;;19.70;97.30;;;;;;5154165;27;20485;-80
2022/07/20 03:08:41;;;;;;;7.60;3.50;;;19.70;97.20;;;;;;5137198;27;20393;-80
2022/07/20 03:11:07;;;;;;;2.92;2.50;;;19.70;96.90;;;;;;5134413;27;20034;-80
2022/07/20 03:13:33;;;;;;;7.97;3.17;;;19.70;97.30;;;;;;5136726;27;20117;-80
2022/07/20 03:15:58;;;;;;;7.05;2.50;;;19.60;97.00;;;;;;5152776;27;20090;-79
2022/07/20 03:18:24;;;;;;;11.73;2.88;;;19.70;97.10;;;;;;5134764;27;20144;-80
2022/07/20 03:20:50;;;;;;;7.28;3.17;;;19.60;97.10;;;;;;5135858;27;20456;-79
2022/07/20 03:23:16;;;;;;;13.13;3.42;;;19.60;97.20;;;;;;5136563;27;20569;-80
2022/07/20 03:25:41;;;;;;;6.88;2.75;;;19.60;96.70;;;;;;5138521;27;20117;-79
2022/07/20 03:28:07;;;;;;;5.47;2.42;;;19.60;96.60;;;;;;5140626;27;20129;-79
2022/07/20 03:30:33;;;;;;;9.57;2.88;;;19.60;96.40;;;;;;5158397;27;20111;-79
2022/07/20 03:32:58;;;;;;;10.15;2.65;;;19.60;96.60;;;;;;5137668;27;20042;-80
2022/07/20 03:35:24;;;;;;;7.93;2.60;;;19.60;96.30;;;;;;5120089;27;20043;-80
2022/07/20 03:37:50;;;;;;;7.15;2.70;;;19.60;96.60;;;;;;5138862;27;20051;-80
2022/07/20 03:40:16;;;;;;;4.85;3.20;;;19.60;96.80;;;;;;5139327;27;20052;-80
2022/07/20 03:42:42;;;;;;;6.35;3.08;;;19.50;96.70;;;;;;5140294;27;20389;-80
2022/07/20 03:45:08;;;;;;;5.93;2.92;;;19.50;97.00;;;;;;5139751;27;20111;-80
2022/07/20 03:47:34;;;;;;;8.25;3.60;;;19.50;97.00;;;;;;5139729;27;20042;-80
2022/07/20 03:50:00;;;;;;;8.50;3.13;;;19.50;97.10;;;;;;5139578;27;20504;-80
2022/07/20 03:52:26;;;;;;;7.15;2.88;;;19.40;97.30;;;;;;5120022;27;20039;-80
2022/07/20 03:54:51;;;;;;;10.75;2.60;;;19.40;97.50;;;;;;5119157;27;20050;-80
2022/07/20 03:57:17;;;;;;;6.50;2.97;;;19.40;97.60;;;;;;5137556;27;20050;-80
2022/07/20 03:59:43;;;;;;;5.20;2.67;;;19.30;97.80;;;;;;5139457;27;20054;-80
2022/07/20 04:02:09;;;;;;;7.65;2.80;;;19.30;97.80;;;;;;5139322;27;20047;-80
2022/07/20 04:04:35;;;;;;;7.15;2.47;;;19.30;97.60;;;;;;5158617;27;20046;-80
2022/07/20 04:07:00;;;;;;;6.75;2.78;;;19.30;97.50;;;;;;5138081;27;20042;-80
2022/07/20 04:09:44;;;;;;;6.10;3.45;;;19.30;97.50;;;;;;5158380;27;20045;-79
2022/07/20 04:12:22;;;;;;;11.50;2.80;;;19.30;97.50;;;;;;5157293;27;20051;-80
2022/07/20 04:14:52;;;;;;;12.73;4.10;;;19.30;97.40;;;;;;5156585;27;20072;-80
2022/07/20 04:17:19;;;;;;;9.38;2.80;;;19.30;97.40;;;;;;5139566;27;20074;-80
2022/07/20 04:19:46;;;;;;;10.77;3.47;;;19.40;97.20;;;;;;5157061;27;20428;-80
2022/07/20 04:22:11;;;;;;;7.70;2.58;;;19.40;96.90;;;;;;5138927;27;20034;-80
2022/07/20 04:24:37;;;;;;;19.38;3.67;;;19.50;96.90;;;;;;5156853;27;20524;-79
2022/07/20 04:27:04;;;;;;;8.65;2.85;;;19.50;96.70;;;;;;5139331;27;20401;-80
2022/07/20 04:29:30;;;;;;;6.20;2.80;;;19.50;96.80;;;;;;5146078;27;20036;-79
2022/07/20 04:31:56;;;;;;;5.32;2.85;;;19.60;96.80;;;;;;5137142;27;20058;-79
2022/07/20 04:34:22;;;;;;;3.42;2.70;;;19.60;97.00;;;;;;5127003;27;20113;-80
2022/07/20 04:36:47;;;;;;;4.90;2.60;;;19.60;97.00;;;;;;5137270;27;20549;-80
2022/07/20 04:39:14;;;;;;;3.90;2.80;;;19.70;96.70;;;;;;5138124;27;20043;-80
2022/07/20 04:41:39;;;;;;;160.32;10.15;;;19.70;96.50;;;;;;5156354;27;20045;-80
2022/07/20 04:44:06;;;;;;;25.73;4.22;;;19.80;96.40;;;;;;5138163;27;20397;-80
2022/07/20 04:46:32;;;;;;;12.48;4.07;;;19.80;96.40;;;;;;5156643;27;20762;-80
2022/07/20 04:48:58;;;;;;;10.52;3.17;;;19.90;96.40;;;;;;5137990;27;20057;-80
2022/07/20 04:51:24;;;;;;;12.32;3.47;;;19.90;96.10;;;;;;5156158;27;20074;-79
2022/07/20 04:53:50;;;;;;;9.60;3.30;;;20.00;96.60;;;;;;5157518;27;20050;-80
2022/07/20 04:56:18;;;;;;;8.13;3.15;;;20.10;96.60;;;;;;5156681;27;20038;-80
2022/07/20 04:58:45;;;;;;;6.65;3.22;;;20.20;96.20;;;;;;5137502;27;20114;-80
2022/07/20 05:01:10;;;;;;;8.90;3.35;;;20.40;96.00;;;;;;5157290;27;20474;-80
2022/07/20 05:03:36;;;;;;;6.68;3.00;;;20.50;96.30;;;;;;5154995;27;20049;-80
2022/07/20 05:06:02;;;;;;;6.75;2.67;;;20.50;96.60;;;;;;5157357;27;20035;-80
2022/07/20 05:08:28;;;;;;;8.55;2.75;;;20.60;96.50;;;;;;5137505;27;20038;-79
2022/07/20 05:10:54;;;;;;;12.25;3.22;;;20.70;96.10;;;;;;5142261;27;20046;-80
2022/07/20 05:13:19;;;;;;;9.05;2.97;;;20.80;96.10;;;;;;5136308;27;20061;-80
2022/07/20 05:15:45;;;;;;;8.93;3.10;;;20.90;96.00;;;;;;5136333;27;20043;-80
2022/07/20 05:18:11;;;;;;;8.25;3.17;;;21.00;95.30;;;;;;5120620;27;20047;-80
2022/07/20 05:20:37;;;;;;;12.75;3.33;;;21.10;94.80;;;;;;5155479;27;20473;-80
2022/07/20 05:23:02;;;;;;;4.82;2.63;;;21.30;94.60;;;;;;5138179;27;20053;-80
2022/07/20 05:25:28;;;;;;;5.53;2.90;;;21.30;94.40;;;;;;5136161;27;20038;-80
2022/07/20 05:27:54;;;;;;;7.22;3.45;;;21.50;93.80;;;;;;5156589;27;20049;-80
2022/07/20 05:30:19;;;;;;;10.60;3.42;;;21.50;93.50;;;;;;5155159;27;20434;-80
2022/07/20 05:32:45;;;;;;;6.03;2.42;;;21.60;93.40;;;;;;5155479;27;20043;-80
2022/07/20 05:35:11;;;;;;;8.65;3.20;;;21.70;93.20;;;;;;5155354;27;20062;-80
2022/07/20 05:37:37;;;;;;;5.03;3.05;;;21.80;93.00;;;;;;5156700;27;20363;-80
2022/07/20 05:40:03;;;;;;;8.35;2.92;;;21.90;92.80;;;;;;5136318;27;20047;-80
2022/07/20 05:42:28;;;;;;;5.45;2.92;;;22.10;92.40;;;;;;5156594;27;20054;-80
2022/07/20 05:44:54;;;;;;;6.32;3.10;;;22.20;92.40;;;;;;5142693;27;20042;-81
2022/07/20 05:47:22;;;;;;;11.55;3.40;;;22.30;92.70;;;;;;5143020;27;20512;-79
2022/07/20 05:49:48;;;;;;;7.05;2.97;;;22.40;92.40;;;;;;5134853;27;20042;-80
2022/07/20 05:52:17;;;;;;;8.98;2.85;;;22.50;92.30;;;;;;5144977;27;20050;-79
2022/07/20 05:54:43;;;;;;;8.93;3.08;;;22.70;92.40;;;;;;5156437;27;20035;-79
2022/07/20 05:57:09;;;;;;;8.07;3.05;;;22.70;91.90;;;;;;5141716;27;20398;-79
2022/07/20 05:59:35;;;;;;;5.65;2.58;;;22.80;92.00;;;;;;5116168;27;20104;-80
2022/07/20 06:02:01;;;;;;;5.35;3.00;;;22.80;92.10;;;;;;5135217;27;20113;-80
2022/07/20 06:04:27;;;;;;;4.47;3.10;;;22.90;91.90;;;;;;5121351;27;20393;-80
2022/07/20 06:06:53;;;;;;;6.90;3.20;;;23.00;91.60;;;;;;5119493;27;20042;-80
2022/07/20 06:09:19;;;;;;;9.48;2.83;;;23.00;91.10;;;;;;5138243;27;20039;-80
2022/07/20 06:11:44;;;;;;;4.55;2.95;;;23.10;90.60;;;;;;5155010;27;20042;-80
2022/07/20 06:14:10;;;;;;;11.13;3.10;;;23.20;90.60;;;;;;5135629;27;20405;-80
2022/07/20 06:16:36;;;;;;;5.47;2.80;;;23.30;90.40;;;;;;5154458;27;20408;-80
2022/07/20 06:19:02;;;;;;;7.88;3.10;;;23.30;90.40;;;;;;5141722;27;20049;-80
2022/07/20 06:21:27;;;;;;;7.35;2.90;;;23.40;90.20;;;;;;5129721;27;20035;-80
2022/07/20 06:23:53;;;;;;;5.38;3.25;;;23.40;90.00;;;;;;5143737;27;20125;-80
2022/07/20 06:26:21;;;;;;;9.73;3.92;;;23.50;90.30;;;;;;5152877;27;20506;-80
2022/07/20 06:28:47;;;;;;;7.97;2.80;;;23.60;89.50;;;;;;5154070;27;20490;-80
2022/07/20 06:31:13;;;;;;;9.98;4.20;;;23.70;89.20;;;;;;5154503;27;20042;-80
2022/07/20 06:33:39;;;;;;;5.03;2.75;;;23.80;88.70;;;;;;5154208;27;20038;-80
2022/07/20 06:36:05;;;;;;;12.23;3.03;;;23.80;88.30;;;;;;5130436;27;20118;-83
2022/07/20 06:38:30;;;;;;;9.00;3.47;;;23.80;88.10;;;;;;5134958;27;20130;-81
2022/07/20 06:40:56;;;;;;;8.38;3.17;;;23.90;88.60;;;;;;5121909;27;20541;-81
2022/07/20 06:43:23;;;;;;;9.57;3.33;;;24.00;88.70;;;;;;5135980;27;20050;-80
2022/07/20 06:45:51;;;;;;;10.00;4.00;;;24.10;89.10;;;;;;5154464;27;20355;-80
2022/07/20 06:48:17;;;;;;;6.03;3.33;;;24.10;88.80;;;;;;5119655;27;20043;-84
2022/07/20 06:50:43;;;;;;;6.55;3.47;;;24.20;88.40;;;;;;5128028;27;20072;-80
2022/07/20 06:53:09;;;;;;;8.68;3.92;;;24.30;88.40;;;;;;5118212;27;20489;-80
2022/07/20 06:55:35;;;;;;;8.30;3.67;;;24.40;88.50;;;;;;5133774;27;20035;-80
2022/07/20 06:58:01;;;;;;;9.95;4.13;;;24.50;88.80;;;;;;5124879;27;20104;-81
2022/07/20 07:00:27;;;;;;;17.80;4.90;;;24.60;89.20;;;;;;5154144;27;20046;-83
2022/07/20 07:02:53;;;;;;;12.18;4.80;;;24.70;89.50;;;;;;5127908;27;20046;-82
2022/07/20 07:05:19;;;;;;;11.70;4.25;;;24.80;90.30;;;;;;5140088;27;20035;-83
2022/07/20 07:07:44;;;;;;;10.85;5.38;;;24.90;90.90;;;;;;5136088;27;20057;-83
2022/07/20 07:10:10;;;;;;;8.25;5.03;;;24.90;90.80;;;;;;5134783;27;20478;-82
2022/07/20 07:12:36;;;;;;;12.73;5.57;;;25.00;90.50;;;;;;5155168;27;20411;-82
2022/07/20 07:15:02;;;;;;;15.35;6.57;;;25.10;90.90;;;;;;5152686;27;20030;-82
2022/07/20 07:17:30;;;;;;;10.93;6.35;;;25.10;90.90;;;;;;5151855;27;20518;-81
2022/07/20 07:19:59;;;;;;;18.30;8.05;;;25.20;91.50;;;;;;5153826;27;20039;-82
2022/07/20 07:22:26;;;;;;;18.85;7.00;;;25.30;91.40;;;;;;5143315;27;20035;-82
2022/07/20 07:24:52;;;;;;;15.88;6.88;;;25.30;91.20;;;;;;5121512;28;20051;-82
2022/07/20 07:27:18;;;;;;;20.15;7.30;;;25.40;91.50;;;;;;5150643;27;20043;-82
2022/07/20 07:29:44;;;;;;;14.75;7.35;;;25.50;91.60;;;;;;5135268;27;20482;-81
2022/07/20 07:32:10;;;;;;;14.88;7.65;;;25.50;91.80;;;;;;5135360;27;20103;-82
2022/07/20 07:34:36;;;;;;;17.83;8.02;;;25.60;91.70;;;;;;5145460;27;20114;-83
2022/07/20 07:37:01;;;;;;;17.08;8.13;;;25.60;91.90;;;;;;5134287;28;20039;-82
2022/07/20 07:39:27;;;;;;;16.23;9.27;;;25.70;92.10;;;;;;5141811;27;20490;-84
2022/07/20 07:41:53;;;;;;;17.42;9.32;;;25.80;92.40;;;;;;5153302;27;20066;-83
2022/07/20 07:44:19;;;;;;;19.13;10.13;;;25.80;92.90;;;;;;5134962;27;20061;-83
2022/07/20 07:46:44;;;;;;;15.73;10.25;;;25.80;93.10;;;;;;5153015;27;20481;-82
2022/07/20 07:49:10;;;;;;;20.48;11.63;;;25.90;93.30;;;;;;5135309;27;20046;-83
2022/07/20 07:51:37;;;;;;;21.50;11.38;;;25.90;93.20;;;;;;5135991;27;20068;-83
2022/07/20 07:54:03;;;;;;;23.35;12.95;;;25.90;93.50;;;;;;5134824;27;20066;-83
2022/07/20 07:56:29;;;;;;;21.10;11.68;;;26.00;93.80;;;;;;5135114;27;20114;-82
2022/07/20 07:58:55;;;;;;;21.88;12.20;;;26.00;93.90;;;;;;5136795;27;20071;-81
2022/07/20 08:01:21;;;;;;;25.65;12.48;;;26.10;94.00;;;;;;5116008;27;20035;-82
2022/07/20 08:03:46;;;;;;;25.95;12.02;;;26.10;94.40;;;;;;5152029;27;20043;-82
2022/07/20 08:06:12;;;;;;;27.65;13.77;;;26.10;94.80;;;;;;5153006;27;20121;-83
2022/07/20 08:08:38;;;;;;;25.88;14.27;;;26.20;95.20;;;;;;5134918;27;20046;-82
2022/07/20 08:11:04;;;;;;;27.70;15.88;;;26.20;95.50;;;;;;5155572;27;20442;-82
2022/07/20 08:13:30;;;;;;;26.25;14.85;;;26.30;95.20;;;;;;5138724;27;20129;-83
2022/07/20 08:15:56;;;;;;;25.33;16.00;;;26.30;95.60;;;;;;5138751;27;20043;-83
2022/07/20 08:18:22;;;;;;;29.73;16.42;;;26.30;95.80;;;;;;5128626;27;20081;-82
2022/07/20 08:20:48;;;;;;;28.38;16.33;;;26.30;95.80;;;;;;5140978;27;20509;-81
2022/07/20 08:23:14;;;;;;;31.88;15.75;;;26.30;95.90;;;;;;5137435;27;20069;-82
2022/07/20 08:25:40;;;;;;;28.60;15.32;;;26.30;95.90;;;;;;5139154;27;20039;-83
2022/07/20 08:28:11;;;;;;;27.92;16.63;;;26.40;95.90;;;;;;5137641;27;20035;-83
2022/07/20 08:30:39;;;;;;;24.67;15.27;;;26.40;95.80;;;;;;5158200;27;20389;-82
2022/07/20 08:33:05;;;;;;;27.20;16.20;;;26.40;95.80;;;;;;5156851;27;20499;-83
2022/07/20 08:35:30;;;;;;;30.25;17.00;;;26.40;95.90;;;;;;5138483;27;20125;-83
2022/07/20 08:37:57;;;;;;;25.15;15.55;;;26.40;96.00;;;;;;5156949;27;20038;-81
2022/07/20 08:40:23;;;;;;;26.05;16.45;;;26.40;96.60;;;;;;5139226;27;20043;-82
2022/07/20 08:42:48;;;;;;;27.95;17.15;;;26.50;96.50;;;;;;5139155;27;20034;-82
2022/07/20 08:45:14;;;;;;;32.55;16.58;;;26.50;96.20;;;;;;5156441;27;20031;-82
2022/07/20 08:47:42;;;;;;;26.77;16.80;;;26.60;96.30;;;;;;5156100;27;20061;-83
2022/07/20 08:50:08;;;;;;;25.70;16.65;;;26.60;96.10;;;;;;5136038;27;20043;-82
2022/07/20 08:52:34;;;;;;;30.73;16.67;;;26.60;95.90;;;;;;5138818;27;20038;-81
2022/07/20 08:55:00;;;;;;;23.88;17.05;;;26.60;96.10;;;;;;5155649;27;20068;-84
2022/07/20 08:57:26;;;;;;;30.98;17.30;;;26.60;96.40;;;;;;5155690;27;20086;-85
2022/07/20 08:59:51;;;;;;;29.90;19.33;;;26.70;96.50;;;;;;5157218;27;20073;-82
2022/07/20 09:02:17;;;;;;;31.70;19.65;;;26.70;96.40;;;;;;5155697;27;20042;-82
2022/07/20 09:05:01;;;;;;;26.13;18.83;;;26.70;96.40;;;;;;5153298;27;20479;-83
2022/07/20 09:07:45;;;;;;;29.55;18.67;;;26.80;96.50;;;;;;5118448;27;20043;-82
2022/07/20 09:10:19;;;;;;;26.65;18.35;;;26.80;96.60;;;;;;5144226;27;20238;-82
2022/07/20 09:12:59;;;;;;;29.63;17.73;;;26.80;96.40;;;;;;5156290;27;20039;-83
2022/07/20 09:15:31;;;;;;;32.58;18.50;;;26.80;96.90;;;;;;5156649;27;20520;-85
2022/07/20 09:18:11;;;;;;;33.80;18.77;;;26.80;96.70;;;;;;5137039;27;20074;-82
2022/07/20 09:20:40;;;;;;;36.15;19.15;;;26.70;96.80;;;;;;5154237;27;20367;-81
2022/07/20 09:23:20;;;;;;;31.23;17.60;;;26.80;96.90;;;;;;5137296;27;20043;-84
2022/07/20 09:25:54;;;;;;;28.67;17.15;;;26.80;97.10;;;;;;5132729;27;20046;-84
2022/07/20 09:28:20;;;;;;;;;;;26.80;95.80;;;;;;5138763;27;20039;-82
2022/07/20 09:30:55;;;;;;;25.63;16.88;;;26.80;95.30;;;;;;5155196;27;19918;-82
2022/07/20 09:33:26;;;;;;;25.77;16.13;;;26.70;95.40;;;;;;5156768;27;20050;-81
2022/07/20 09:35:53;;;;;;;27.38;15.70;;;26.70;95.10;;;;;;5143673;27;20047;-82
2022/07/20 09:38:19;;;;;;;25.52;16.10;;;26.70;94.70;;;;;;5117147;27;20043;-86
2022/07/20 09:40:45;;;;;;;28.52;16.27;;;26.70;93.70;;;;;;5137097;27;20555;-82
2022/07/20 09:43:34;;;;;;;27.20;14.88;;;26.70;93.70;;;;;;5148196;27;20398;-81
2022/07/20 09:46:12;;;;;;;25.95;15.07;;;26.70;93.60;;;;;;5117784;27;20053;-82
2022/07/20 09:48:43;;;;;;;23.70;15.40;;;26.70;94.10;;;;;;5142145;27;20067;-85
2022/07/20 09:51:31;;;;;;;27.05;15.07;;;26.70;93.50;;;;;;5117216;27;20553;-85
2022/07/20 09:54:01;;;;;;;25.13;14.27;;;26.70;93.10;;;;;;5121268;27;20082;-87
2022/07/20 09:56:27;;;;;;;21.02;12.73;;;26.70;92.90;;;;;;5136259;27;20423;-81
2022/07/20 09:58:55;;;;;;;25.67;13.73;;;26.70;91.20;;;;;;5155556;27;20093;-81
2022/07/20 10:01:24;;;;;;;22.58;11.77;;;26.70;91.50;;;;;;5143973;27;20049;-81
2022/07/20 10:03:53;;;;;;;19.10;11.77;;;26.70;90.90;;;;;;5126841;27;20087;-81
2022/07/20 10:06:20;;;;;;;22.42;10.55;;;26.80;91.40;;;;;;5116781;27;20039;-80
2022/07/20 10:08:47;;;;;;;15.40;9.15;;;26.70;90.80;;;;;;5144111;27;20042;-85
2022/07/20 10:11:14;;;;;;;15.77;8.63;;;26.90;89.80;;;;;;5155177;27;20107;-82
2022/07/20 10:13:41;;;;;;;19.08;9.30;;;26.90;87.80;;;;;;5130235;27;20035;-81
2022/07/20 10:16:39;;;;;;;16.02;8.73;;;26.80;88.70;;;;;;5116828;27;20059;-85
2022/07/20 10:19:07;;;;;;;16.35;9.18;;;26.90;88.70;;;;;;5151575;27;20054;-87
2022/07/20 10:21:34;;;;;;;19.23;9.32;;;26.90;89.20;;;;;;5133954;27;20402;-85
2022/07/20 10:24:22;;;;;;;15.63;9.30;;;26.90;87.50;;;;;;5150014;27;20049;-87
2022/07/20 10:26:52;;;;;;;14.68;9.38;;;27.00;87.40;;;;;;5155068;27;20078;-83
2022/07/20 10:29:28;;;;;;;17.27;9.63;;;27.00;88.50;;;;;;5154391;27;20046;-84
2022/07/20 10:32:11;;;;;;;17.17;9.93;;;27.10;88.90;;;;;;5137136;27;20086;-85
2022/07/20 10:34:49;;;;;;;16.73;8.13;;;27.10;88.80;;;;;;5154177;27;20042;-85
2022/07/20 10:37:24;;;;;;;15.70;9.18;;;27.10;88.60;;;;;;5154200;27;20046;-83
2022/07/20 10:39:51;;;;;;;16.27;8.65;;;27.10;88.30;;;;;;5135982;27;20042;-82
2022/07/20 10:42:31;;;;;;;21.90;8.88;;;27.10;88.90;;;;;;5153981;27;20107;-81
2022/07/20 10:45:19;;;;;;;18.08;8.15;;;27.10;89.00;;;;;;5154716;27;20111;-82
2022/07/20 10:48:11;;;;;;;16.20;8.02;;;27.20;89.40;;;;;;5120479;27;20039;-81
2022/07/20 10:50:42;;;;;;;15.65;8.75;;;27.30;88.60;;;;;;5154347;27;20066;-81
2022/07/20 10:53:11;;;;;;;17.63;10.30;;;27.20;88.00;;;;;;5135984;27;20121;-82
2022/07/20 10:55:38;;;;;;;21.70;9.35;;;27.30;87.70;;;;;;5153881;27;20043;-81
2022/07/20 10:58:20;;;;;;;15.73;8.52;;;27.30;88.60;;;;;;5137308;27;20046;-82
2022/07/20 11:00:52;;;;;;;14.98;9.05;;;27.40;87.00;;;;;;5132983;27;20039;-83
2022/07/20 11:03:30;;;;;;;12.73;9.27;;;27.40;86.60;;;;;;5152530;27;20046;-84
2022/07/20 11:06:05;;;;;;;16.63;9.23;;;27.40;85.30;;;;;;5137877;27;20560;-84
2022/07/20 11:08:31;;;;;;;18.13;10.25;;;27.40;84.80;;;;;;5113963;27;20043;-82
2022/07/20 11:10:58;;;;;;;23.23;8.68;;;27.40;84.20;;;;;;5148682;27;20057;-87
2022/07/20 11:13:24;;;;;;;14.55;9.30;;;27.40;85.00;;;;;;5135684;27;20051;-86
2022/07/20 11:15:52;;;;;;;15.65;8.80;;;27.50;83.80;;;;;;5131168;28;20407;-82
2022/07/20 11:18:23;;;;;;;17.35;8.73;;;27.50;84.00;;;;;;5131872;28;20193;-81
2022/07/20 11:20:58;;;;;;;12.07;7.97;;;27.60;85.50;;;;;;5123953;28;20050;-83
2022/07/20 11:23:26;;;;;;;15.63;7.95;;;27.60;85.70;;;;;;5118613;27;20051;-81
2022/07/20 11:26:00;;;;;;;15.15;8.20;;;27.80;85.10;;;;;;5111718;28;20386;-80
2022/07/20 11:28:28;;;;;;;19.92;7.30;;;27.80;85.10;;;;;;5113507;28;20089;-84
2022/07/20 11:30:55;;;;;;;10.68;6.90;;;27.80;84.30;;;;;;5112874;28;20051;-85
2022/07/20 11:33:33;;;;;;;15.20;7.10;;;27.70;83.70;;;;;;5112531;28;20122;-86
2022/07/20 11:36:04;;;;;;;11.63;6.57;;;27.80;83.50;;;;;;5112254;28;20122;-82
2022/07/20 11:38:43;;;;;;;17.52;6.72;;;27.80;82.80;;;;;;5112865;28;20390;-83
2022/07/20 11:41:21;;;;;;;9.18;5.90;;;27.80;83.80;;;;;;5113376;28;20040;-83
2022/07/20 11:43:51;;;;;;;14.43;6.75;;;27.80;81.90;;;;;;5112829;28;20071;-85
2022/07/20 11:46:26;;;;;;;15.35;6.32;;;27.90;81.40;;;;;;5116678;28;20093;-84
2022/07/20 11:48:56;;;;;;;11.88;5.95;;;27.90;80.30;;;;;;5117652;28;20437;-86
2022/07/20 11:51:22;;;;;;;10.10;6.10;;;27.80;80.00;;;;;;5116432;28;20044;-82
2022/07/20 11:53:48;;;;;;;13.38;6.82;;;27.80;80.40;;;;;;5117166;28;20044;-84
2022/07/20 11:56:19;;;;;;;11.30;7.43;;;27.80;80.90;;;;;;5118713;28;20407;-84
2022/07/20 11:58:50;;;;;;;15.50;7.07;;;27.80;79.00;;;;;;5100541;28;20054;-84
2022/07/20 12:01:22;;;;;;;23.58;7.18;;;27.90;79.50;;;;;;5117167;28;20367;-86
2022/07/20 12:03:51;;;;;;;11.85;7.07;;;27.90;79.50;;;;;;5133554;27;20439;-81
2022/07/20 12:06:17;;;;;;;11.10;7.25;;;27.90;79.30;;;;;;5134331;27;20062;-83
2022/07/20 12:08:44;;;;;;;12.75;7.05;;;27.90;78.30;;;;;;5133495;27;20099;-82
2022/07/20 12:11:11;;;;;;;11.10;6.70;;;27.90;79.20;;;;;;5137662;27;20122;-82
2022/07/20 12:13:48;;;;;;;12.95;6.97;;;27.90;79.80;;;;;;5120890;27;20051;-84
2022/07/20 12:16:16;;;;;;;13.02;6.57;;;28.00;80.40;;;;;;5115575;28;20067;-82
2022/07/20 12:18:51;;;;;;;12.85;6.82;;;28.00;81.30;;;;;;5131823;27;20050;-81
2022/07/20 12:21:24;;;;;;;15.68;7.50;;;28.10;82.30;;;;;;5136585;27;20050;-81
2022/07/20 12:23:55;;;;;;;13.88;7.03;;;28.10;82.50;;;;;;5124169;27;20055;-85
2022/07/20 12:26:35;;;;;;;13.07;7.20;;;28.20;82.40;;;;;;5114810;28;20101;-83
2022/07/20 12:29:20;;;;;;;13.93;6.97;;;28.20;79.50;;;;;;5115008;27;20079;-81
2022/07/20 12:32:04;;;;;;;11.43;6.45;;;28.20;79.30;;;;;;5136063;27;20103;-84
2022/07/20 12:34:33;;;;;;;9.57;5.60;;;28.20;78.30;;;;;;5116896;27;20134;-84
2022/07/20 12:36:59;;;;;;;14.65;7.38;;;28.10;76.40;;;;;;5116382;28;20096;-85
2022/07/20 12:39:42;;;;;;;9.80;6.25;;;28.10;76.90;;;;;;5098096;28;20044;-84
2022/07/20 12:42:13;;;;;;;13.25;7.10;;;28.10;75.50;;;;;;5131474;27;20119;-82
2022/07/20 12:44:39;;;;;;;11.45;7.22;;;28.10;78.00;;;;;;5135167;27;20046;-81
2022/07/20 12:47:05;;;;;;;9.70;6.22;;;28.20;78.20;;;;;;5134964;27;20050;-82